Time;durP1;ratioP1;P1;durP2;ratioP2;P2;SDS_P1;SDS_P2;PMS_P1;PMS_P2;Temp;Humidity;BMP_temperature;BMP_pressure;BME280_temperature;BME280_humidity;BME280_pressure;Samples;Min_cycle;Max_cycle;Signal;HPM_P1;HPM_P2
2023/12/04 00:01:17;;;;;;;7.40;4.00;;;18.50;99.90;;;;;;4590990;19;20333;-75
2023/12/04 00:02:53;;;;;;;7.38;4.20;;;18.50;99.90;;;;;;4591021;19;20007;-75
2023/12/04 00:04:27;;;;;;;7.70;4.18;;;18.50;99.90;;;;;;4592090;19;20006;-75
2023/12/04 00:06:04;;;;;;;6.78;4.22;;;18.50;99.90;;;;;;4591623;19;20011;-75
2023/12/04 00:07:39;;;;;;;6.30;3.95;;;18.50;99.90;;;;;;4592646;19;20479;-75
2023/12/04 00:09:13;;;;;;;8.45;4.05;;;18.50;99.90;;;;;;4592156;19;20444;-75
2023/12/04 00:10:49;;;;;;;8.15;4.15;;;18.50;99.90;;;;;;4591032;19;20082;-75
2023/12/04 00:12:23;;;;;;;7.32;3.60;;;18.50;99.90;;;;;;4591871;19;20019;-75
2023/12/04 00:13:57;;;;;;;7.75;4.03;;;18.50;99.90;;;;;;4592219;19;19994;-75
2023/12/04 00:15:32;;;;;;;6.57;3.80;;;18.50;99.90;;;;;;4591782;19;20010;-75
2023/12/04 00:17:06;;;;;;;8.10;4.65;;;18.50;99.90;;;;;;4592406;19;20003;-75
2023/12/04 00:18:40;;;;;;;6.30;3.80;;;18.50;99.90;;;;;;4591246;19;20018;-75
2023/12/04 00:20:16;;;;;;;6.45;4.00;;;18.50;99.90;;;;;;4592375;19;20377;-75
2023/12/04 00:21:50;;;;;;;7.25;3.85;;;18.50;99.90;;;;;;4591969;19;20017;-75
2023/12/04 00:23:24;;;;;;;6.20;3.67;;;18.50;99.90;;;;;;4592080;19;20021;-75
2023/12/04 00:25:00;;;;;;;5.95;3.60;;;18.50;99.90;;;;;;4592165;19;20018;-75
2023/12/04 00:26:34;;;;;;;5.60;3.65;;;18.50;99.90;;;;;;4590512;19;20011;-75
2023/12/04 00:28:08;;;;;;;4.68;3.40;;;18.50;99.90;;;;;;4592288;19;20005;-75
2023/12/04 00:29:44;;;;;;;6.65;4.20;;;18.50;99.90;;;;;;4592266;19;20010;-75
2023/12/04 00:31:19;;;;;;;7.63;3.83;;;18.50;99.90;;;;;;4592202;19;20421;-75
2023/12/04 00:32:53;;;;;;;6.75;3.67;;;18.50;99.90;;;;;;4590536;19;20011;-75
2023/12/04 00:34:28;;;;;;;7.80;3.75;;;18.50;99.90;;;;;;4591916;19;20006;-75
2023/12/04 00:36:03;;;;;;;6.88;3.60;;;18.50;99.90;;;;;;4591045;19;20363;-75
2023/12/04 00:37:38;;;;;;;5.30;3.30;;;18.50;99.90;;;;;;4592102;19;20015;-75
2023/12/04 00:39:16;;;;;;;7.35;4.43;;;18.50;99.90;;;;;;4591037;19;20078;-75
2023/12/04 00:40:50;;;;;;;6.25;3.85;;;18.50;99.90;;;;;;4591774;19;20076;-75
2023/12/04 00:42:24;;;;;;;6.03;3.50;;;18.50;99.90;;;;;;4590450;19;19995;-75
2023/12/04 00:44:00;;;;;;;5.38;3.67;;;18.50;99.90;;;;;;4591235;19;20011;-75
2023/12/04 00:45:37;;;;;;;6.57;3.88;;;18.50;99.90;;;;;;4590914;19;20010;-75
2023/12/04 00:47:11;;;;;;;6.22;3.75;;;18.50;99.90;;;;;;4591575;19;20015;-75
2023/12/04 00:48:47;;;;;;;4.50;3.33;;;18.40;99.90;;;;;;4590332;19;20014;-75
2023/12/04 00:53:04;;;;;;;5.85;3.22;;;18.40;99.90;;;;;;4591264;19;19983;-75
2023/12/04 00:54:42;;;;;;;4.85;3.53;;;18.40;99.90;;;;;;4591604;19;20440;-75
2023/12/04 00:56:16;;;;;;;6.40;3.42;;;18.40;99.90;;;;;;4590383;19;20010;-75
2023/12/04 00:57:50;;;;;;;6.97;3.35;;;18.40;99.90;;;;;;4591519;19;20015;-75
2023/12/04 00:59:25;;;;;;;6.20;3.20;;;18.40;99.90;;;;;;4590318;19;20011;-75
2023/12/04 01:11:02;;;;;;;5.05;3.22;;;18.40;99.90;;;;;;4577721;19;20305;-75
2023/12/04 01:12:37;;;;;;;6.07;3.35;;;18.40;99.90;;;;;;4595908;19;20301;-75
2023/12/04 01:14:11;;;;;;;6.20;3.50;;;18.40;99.90;;;;;;4595637;19;20010;-76
2023/12/04 01:15:46;;;;;;;5.88;3.10;;;18.40;99.90;;;;;;4596034;19;20036;-75
2023/12/04 01:17:21;;;;;;;4.63;3.15;;;18.40;99.90;;;;;;4594528;19;20014;-75
2023/12/04 01:18:55;;;;;;;5.90;2.90;;;18.40;99.90;;;;;;4593303;19;20014;-75
2023/12/04 01:20:29;;;;;;;6.68;3.13;;;18.40;99.90;;;;;;4593670;19;20006;-75
2023/12/04 01:22:05;;;;;;;7.65;4.07;;;18.40;99.90;;;;;;4595418;19;20074;-75
2023/12/04 01:23:39;;;;;;;4.93;3.13;;;18.40;99.90;;;;;;4595647;19;20005;-75
2023/12/04 01:25:13;;;;;;;6.15;3.38;;;18.40;99.90;;;;;;4595552;19;20006;-75
2023/12/04 01:26:48;;;;;;;4.70;2.95;;;18.40;99.90;;;;;;4594663;19;20512;-75
2023/12/04 01:28:24;;;;;;;6.03;3.70;;;18.40;99.90;;;;;;4595214;19;19999;-75
2023/12/04 01:29:59;;;;;;;5.18;3.28;;;18.40;99.90;;;;;;4595519;19;19998;-75
2023/12/04 01:31:33;;;;;;;4.35;2.88;;;18.40;99.90;;;;;;4593515;19;20015;-75
2023/12/04 01:33:08;;;;;;;4.60;3.38;;;18.40;99.90;;;;;;4594413;19;20323;-75
2023/12/04 01:34:42;;;;;;;5.30;3.40;;;18.40;99.90;;;;;;4595082;19;20017;-75
2023/12/04 01:36:16;;;;;;;4.90;3.00;;;18.40;99.90;;;;;;4595343;19;20430;-75
2023/12/04 01:37:52;;;;;;;4.93;3.03;;;18.40;99.90;;;;;;4595440;19;20007;-75
2023/12/04 01:39:26;;;;;;;5.32;3.58;;;18.40;99.90;;;;;;4594007;19;19998;-75
2023/12/04 01:40:59;;;;;;;5.28;3.35;;;18.40;99.90;;;;;;4593958;19;20035;-75
2023/12/04 01:42:35;;;;;;;5.38;4.10;;;18.40;99.90;;;;;;4595522;19;20327;-75
2023/12/04 01:44:09;;;;;;;5.30;3.45;;;18.40;99.90;;;;;;4595499;19;20006;-75
2023/12/04 01:45:43;;;;;;;5.32;3.10;;;18.40;99.90;;;;;;4595464;19;20010;-75
2023/12/04 01:47:20;;;;;;;5.63;3.30;;;18.40;99.90;;;;;;4595445;19;20010;-75
2023/12/04 01:48:54;;;;;;;4.78;2.88;;;18.40;99.90;;;;;;4595134;19;20069;-75
2023/12/04 01:50:28;;;;;;;5.25;3.22;;;18.40;99.90;;;;;;4592978;19;20039;-75
2023/12/04 01:52:03;;;;;;;4.78;2.75;;;18.30;99.90;;;;;;4594522;19;20006;-75
2023/12/04 01:53:39;;;;;;;4.90;2.88;;;18.30;99.90;;;;;;4593935;19;20020;-75
2023/12/04 01:55:13;;;;;;;5.43;3.58;;;18.40;99.90;;;;;;4595023;19;20039;-75
2023/12/04 01:56:49;;;;;;;5.22;3.40;;;18.40;99.90;;;;;;4595020;19;20013;-75
2023/12/04 01:58:23;;;;;;;4.43;2.70;;;18.30;99.90;;;;;;4594728;19;20020;-76
2023/12/04 01:59:57;;;;;;;4.30;3.03;;;18.30;99.90;;;;;;4593882;19;20025;-75
2023/12/04 02:01:33;;;;;;;4.97;2.83;;;18.30;99.90;;;;;;4592087;19;20011;-76
2023/12/04 02:03:07;;;;;;;4.35;2.85;;;18.30;99.90;;;;;;4593814;19;20433;-75
2023/12/04 02:04:41;;;;;;;4.32;2.83;;;18.40;99.90;;;;;;4593432;19;20077;-75
2023/12/04 02:06:17;;;;;;;4.15;2.80;;;18.40;99.90;;;;;;4594523;19;20014;-76
2023/12/04 02:07:51;;;;;;;4.30;2.85;;;18.40;99.90;;;;;;4594652;19;20011;-75
2023/12/04 02:09:25;;;;;;;4.65;2.78;;;18.40;99.90;;;;;;4593649;19;20045;-75
2023/12/04 02:11:00;;;;;;;5.88;3.17;;;18.40;99.90;;;;;;4592807;19;20014;-75
2023/12/04 02:12:34;;;;;;;4.35;2.97;;;18.40;99.90;;;;;;4593595;19;20062;-75
2023/12/04 02:14:08;;;;;;;4.35;3.10;;;18.40;99.90;;;;;;4594311;19;20003;-75
2023/12/04 02:15:44;;;;;;;4.30;2.47;;;18.40;99.90;;;;;;4593348;19;20303;-76
2023/12/04 02:17:18;;;;;;;4.97;2.90;;;18.40;99.90;;;;;;4593294;19;19994;-75
2023/12/04 02:18:52;;;;;;;4.50;2.90;;;18.40;99.90;;;;;;4593798;19;19998;-75
2023/12/04 02:20:34;;;;;;;5.70;3.20;;;18.40;99.90;;;;;;4593882;19;20010;-75
2023/12/04 02:22:08;;;;;;;4.57;2.58;;;18.40;99.90;;;;;;4594419;19;20006;-75
2023/12/04 02:23:42;;;;;;;4.22;2.55;;;18.40;99.90;;;;;;4594455;19;20014;-76
2023/12/04 02:25:18;;;;;;;4.07;2.53;;;18.40;99.90;;;;;;4594656;19;19998;-75
2023/12/04 02:26:55;;;;;;;4.25;2.67;;;18.40;99.90;;;;;;4594354;19;19995;-75
2023/12/04 02:28:34;;;;;;;4.30;2.45;;;18.40;99.90;;;;;;4593065;19;20009;-75
2023/12/04 02:30:12;;;;;;;3.60;2.38;;;18.40;99.90;;;;;;4592814;19;20019;-75
2023/12/04 02:31:46;;;;;;;4.90;2.85;;;18.40;99.90;;;;;;4594327;19;20009;-75
2023/12/04 02:33:20;;;;;;;4.65;2.63;;;18.40;99.90;;;;;;4594168;19;20371;-75
2023/12/04 02:34:55;;;;;;;4.32;2.58;;;18.40;99.90;;;;;;4593150;19;20290;-75
2023/12/04 02:36:29;;;;;;;3.83;2.50;;;18.40;99.90;;;;;;4594148;19;19998;-75
2023/12/04 02:38:05;;;;;;;4.72;2.97;;;18.40;99.90;;;;;;4593126;19;20045;-75
2023/12/04 02:39:41;;;;;;;6.03;3.20;;;18.40;99.90;;;;;;4592583;19;20065;-75
2023/12/04 02:41:17;;;;;;;4.63;3.22;;;18.40;99.90;;;;;;4591621;19;20368;-75
2023/12/04 02:42:51;;;;;;;4.40;2.70;;;18.40;99.90;;;;;;4593691;19;19998;-75
2023/12/04 02:44:26;;;;;;;4.63;2.90;;;18.40;99.90;;;;;;4592728;19;20002;-75
2023/12/04 02:46:00;;;;;;;4.65;2.47;;;18.40;99.90;;;;;;4593590;19;19998;-75
2023/12/04 02:47:34;;;;;;;4.72;2.95;;;18.40;99.90;;;;;;4593982;19;19999;-75
2023/12/04 02:49:10;;;;;;;4.00;2.45;;;18.40;99.90;;;;;;4593933;19;20455;-75
2023/12/04 02:50:44;;;;;;;4.00;2.53;;;18.40;99.90;;;;;;4592838;19;20322;-75
2023/12/04 02:52:18;;;;;;;3.85;2.70;;;18.40;99.90;;;;;;4594113;19;20013;-75
2023/12/04 02:53:53;;;;;;;3.67;2.15;;;18.40;99.90;;;;;;4593864;19;20013;-75
2023/12/04 02:55:27;;;;;;;4.00;2.53;;;18.40;99.90;;;;;;4593998;19;20021;-75
2023/12/04 02:57:01;;;;;;;4.55;2.30;;;18.40;99.90;;;;;;4593603;19;20043;-75
2023/12/04 02:58:37;;;;;;;4.35;2.60;;;18.40;99.90;;;;;;4593494;19;20002;-75
2023/12/04 03:00:11;;;;;;;3.80;2.30;;;18.40;99.90;;;;;;4593284;19;20326;-75
2023/12/04 03:01:45;;;;;;;4.43;2.30;;;18.40;99.90;;;;;;4593679;19;20024;-75
2023/12/04 03:03:20;;;;;;;3.53;2.63;;;18.40;99.90;;;;;;4593923;19;20011;-75
2023/12/04 03:04:54;;;;;;;4.30;2.40;;;18.40;99.90;;;;;;4593432;19;20020;-75
2023/12/04 03:06:29;;;;;;;3.55;2.60;;;18.40;99.90;;;;;;4593550;19;20025;-75
2023/12/04 03:08:04;;;;;;;4.10;2.55;;;18.40;99.90;;;;;;4593438;19;20074;-75
2023/12/04 03:09:38;;;;;;;4.10;2.70;;;18.40;99.90;;;;;;4593469;19;20002;-75
2023/12/04 03:11:13;;;;;;;3.53;2.33;;;18.40;99.90;;;;;;4592006;19;20017;-75
2023/12/04 03:12:48;;;;;;;3.72;2.33;;;18.40;99.90;;;;;;4593738;19;20283;-75
2023/12/04 03:14:22;;;;;;;3.63;2.45;;;18.40;99.90;;;;;;4593328;19;20425;-75
2023/12/04 03:15:56;;;;;;;3.75;2.45;;;18.40;99.90;;;;;;4593627;19;20022;-75
2023/12/04 03:17:31;;;;;;;3.97;2.40;;;18.40;99.90;;;;;;4593626;19;20325;-75
2023/12/04 03:19:05;;;;;;;4.07;2.58;;;18.40;99.90;;;;;;4592900;19;19995;-75
2023/12/04 03:20:40;;;;;;;3.88;2.20;;;18.40;99.90;;;;;;4592532;19;20018;-75
2023/12/04 03:22:18;;;;;;;3.38;2.00;;;18.40;99.90;;;;;;4593284;19;20027;-75
2023/12/04 03:23:52;;;;;;;4.97;2.75;;;18.50;99.90;;;;;;4593304;19;20042;-76
2023/12/04 03:25:26;;;;;;;3.15;2.03;;;18.40;99.90;;;;;;4593092;19;20065;-75
2023/12/04 03:27:01;;;;;;;3.63;2.67;;;18.40;99.90;;;;;;4593206;19;20006;-75
2023/12/04 03:28:35;;;;;;;3.85;2.60;;;18.40;99.90;;;;;;4590334;19;20090;-76
2023/12/04 03:30:10;;;;;;;3.47;2.17;;;18.50;99.90;;;;;;4592479;19;20095;-75
2023/12/04 03:31:47;;;;;;;3.83;2.60;;;18.50;99.90;;;;;;4593124;19;20033;-75
2023/12/04 03:33:22;;;;;;;3.95;2.30;;;18.50;99.90;;;;;;4593092;19;20022;-75
2023/12/04 03:34:57;;;;;;;2.95;2.22;;;18.50;99.90;;;;;;4592887;19;20025;-75
2023/12/04 03:36:33;;;;;;;4.63;2.40;;;18.50;99.90;;;;;;4593024;19;20313;-75
2023/12/04 03:38:07;;;;;;;3.63;2.67;;;18.50;99.90;;;;;;4591858;19;20003;-75
2023/12/04 03:39:41;;;;;;;3.03;2.15;;;18.50;99.90;;;;;;4591498;19;20070;-75
2023/12/04 03:41:16;;;;;;;4.03;2.70;;;18.50;99.90;;;;;;4591750;19;20014;-75
2023/12/04 03:42:50;;;;;;;4.15;2.78;;;18.50;99.90;;;;;;4592692;19;20028;-75
2023/12/04 03:44:24;;;;;;;3.97;2.60;;;18.50;99.90;;;;;;4592696;19;20003;-75
2023/12/04 03:46:01;;;;;;;3.03;2.20;;;18.50;99.90;;;;;;4592835;19;20038;-75
2023/12/04 03:47:35;;;;;;;3.20;2.00;;;18.50;99.90;;;;;;4592727;19;20421;-75
2023/12/04 03:49:09;;;;;;;2.92;1.95;;;18.50;99.90;;;;;;4592706;19;20015;-75
2023/12/04 03:50:44;;;;;;;3.45;2.13;;;18.50;99.90;;;;;;4592368;19;20018;-75
2023/12/04 03:52:18;;;;;;;3.08;2.00;;;18.40;99.90;;;;;;4592654;19;20011;-75
2023/12/04 03:53:52;;;;;;;3.28;2.00;;;18.40;99.90;;;;;;4592635;19;20021;-75
2023/12/04 03:55:27;;;;;;;3.25;2.28;;;18.40;99.90;;;;;;4592625;19;20027;-75
2023/12/04 03:57:02;;;;;;;3.35;2.42;;;18.40;99.90;;;;;;4592569;19;19999;-75
2023/12/04 03:58:37;;;;;;;4.93;1.92;;;18.40;99.90;;;;;;4592275;19;20025;-75
2023/12/04 04:00:12;;;;;;;3.10;2.08;;;18.40;99.90;;;;;;4592119;19;20007;-75
2023/12/04 04:01:46;;;;;;;3.15;1.88;;;18.40;99.90;;;;;;4592480;19;20009;-75
2023/12/04 04:03:21;;;;;;;2.45;1.80;;;18.40;99.90;;;;;;4592404;19;20006;-75
2023/12/04 04:04:56;;;;;;;4.32;1.80;;;18.40;99.90;;;;;;4592339;19;20017;-75
2023/12/04 04:06:30;;;;;;;3.50;2.40;;;18.40;99.90;;;;;;4591016;19;20442;-75
2023/12/04 04:08:06;;;;;;;3.20;2.20;;;18.40;99.90;;;;;;4591979;19;20003;-75
2023/12/04 04:09:41;;;;;;;3.22;2.20;;;18.40;99.90;;;;;;4591085;19;20002;-75
2023/12/04 04:11:16;;;;;;;3.60;2.47;;;18.40;99.90;;;;;;4590623;19;20018;-75
2023/12/04 04:12:50;;;;;;;2.47;1.70;;;18.40;99.90;;;;;;4591670;19;19995;-75
2023/12/04 04:14:26;;;;;;;2.95;2.03;;;18.40;99.90;;;;;;4591921;19;20012;-75
2023/12/04 04:16:00;;;;;;;3.25;2.10;;;18.40;99.90;;;;;;4592153;19;20002;-75
2023/12/04 04:17:34;;;;;;;2.90;2.00;;;18.40;99.90;;;;;;4591179;19;20434;-76
2023/12/04 04:19:09;;;;;;;3.05;2.10;;;18.50;99.90;;;;;;4591247;19;20002;-76
2023/12/04 04:20:44;;;;;;;3.03;2.10;;;18.50;99.90;;;;;;4591554;19;20007;-76
2023/12/04 04:22:18;;;;;;;3.83;2.33;;;18.50;99.90;;;;;;4592358;19;20317;-76
2023/12/04 04:23:53;;;;;;;3.53;2.17;;;18.50;99.90;;;;;;4592051;19;20011;-75
2023/12/04 04:25:27;;;;;;;4.35;2.25;;;18.50;99.90;;;;;;4591903;19;20010;-75
2023/12/04 04:27:01;;;;;;;3.50;2.10;;;18.50;99.90;;;;;;4592044;19;20021;-75
2023/12/04 04:28:36;;;;;;;2.67;1.77;;;18.50;99.90;;;;;;4592440;19;20015;-75
2023/12/04 04:30:11;;;;;;;3.78;2.30;;;18.50;99.90;;;;;;4591799;19;19999;-76
2023/12/04 04:31:46;;;;;;;3.10;2.05;;;18.50;99.90;;;;;;4592211;19;19994;-75
2023/12/04 04:33:21;;;;;;;3.53;2.15;;;18.50;99.90;;;;;;4591915;19;20010;-76
2023/12/04 04:34:55;;;;;;;3.05;1.95;;;18.50;99.90;;;;;;4591852;19;20007;-75
2023/12/04 04:36:30;;;;;;;3.58;2.22;;;18.50;99.90;;;;;;4591850;19;20002;-76
2023/12/04 04:38:05;;;;;;;4.57;1.90;;;18.50;99.90;;;;;;4591902;19;20006;-76
2023/12/04 04:39:40;;;;;;;2.80;1.75;;;18.50;99.90;;;;;;4591059;19;20311;-76
2023/12/04 04:41:17;;;;;;;3.25;1.80;;;18.50;99.90;;;;;;4594344;19;20066;-75
2023/12/04 04:42:53;;;;;;;3.15;2.13;;;18.50;99.90;;;;;;4596607;19;20036;-75
2023/12/04 04:44:27;;;;;;;3.08;2.00;;;18.50;99.90;;;;;;4596369;19;20445;-76
2023/12/04 04:46:01;;;;;;;2.95;1.98;;;18.70;99.90;;;;;;4596367;19;20010;-75
2023/12/04 04:47:36;;;;;;;3.30;2.33;;;18.80;99.90;;;;;;4596387;19;20404;-76
2023/12/04 04:49:11;;;;;;;3.05;2.03;;;19.00;99.90;;;;;;4596316;19;20313;-75
2023/12/04 04:50:44;;;;;;;4.03;1.88;;;19.10;99.90;;;;;;4595245;19;20493;-74
2023/12/04 04:52:20;;;;;;;3.47;2.03;;;19.30;99.90;;;;;;4596405;19;20002;-74
2023/12/04 04:53:54;;;;;;;2.25;1.52;;;19.40;99.90;;;;;;4596271;19;20032;-74
2023/12/04 04:55:28;;;;;;;3.60;1.90;;;19.60;99.90;;;;;;4596271;19;19994;-75
2023/12/04 04:57:03;;;;;;;2.47;1.70;;;19.80;99.90;;;;;;4596235;19;19999;-75
2023/12/04 04:58:38;;;;;;;2.92;1.90;;;20.00;99.90;;;;;;4595947;19;19998;-75
2023/12/04 05:00:13;;;;;;;2.70;1.90;;;20.10;99.90;;;;;;4595633;19;20084;-76
2023/12/04 05:01:48;;;;;;;2.80;1.85;;;20.20;99.90;;;;;;4596265;19;20007;-74
2023/12/04 05:03:22;;;;;;;13.35;2.80;;;20.30;99.90;;;;;;4596111;19;19991;-74
2023/12/04 05:04:56;;;;;;;3.15;2.00;;;20.40;99.90;;;;;;4596064;19;20005;-74
2023/12/04 05:06:31;;;;;;;5.18;2.28;;;20.40;99.90;;;;;;4596126;19;20448;-74
2023/12/04 05:08:05;;;;;;;2.92;2.03;;;20.40;99.90;;;;;;4595986;19;20417;-74
2023/12/04 05:09:40;;;;;;;4.05;2.40;;;20.40;99.90;;;;;;4595956;19;20325;-76
2023/12/04 05:11:18;;;;;;;5.03;2.78;;;20.40;99.90;;;;;;4594003;19;20454;-73
2023/12/04 05:12:52;;;;;;;4.97;2.55;;;20.40;99.90;;;;;;4595939;19;20009;-75
2023/12/04 05:14:27;;;;;;;8.38;2.95;;;20.40;99.90;;;;;;4595842;19;20010;-75
2023/12/04 05:16:02;;;;;;;5.28;3.65;;;20.30;99.90;;;;;;4595896;19;20010;-75
2023/12/04 05:17:36;;;;;;;7.50;3.75;;;20.30;99.90;;;;;;4595857;19;20023;-75
2023/12/04 05:19:10;;;;;;;1.90;1.08;;;20.30;99.90;;;;;;4594878;19;20007;-75
2023/12/04 05:20:47;;;;;;;17.85;15.65;;;19.90;97.00;;;;;;4594763;19;20011;-75
2023/12/04 05:22:21;;;;;;;17.42;15.63;;;19.00;92.00;;;;;;4594418;19;20018;-76
2023/12/04 05:23:56;;;;;;;18.23;16.33;;;18.40;90.70;;;;;;4595346;19;19994;-74
2023/12/04 05:25:31;;;;;;;19.08;17.00;;;17.90;90.40;;;;;;4595854;19;20010;-75
2023/12/04 05:27:05;;;;;;;25.73;21.63;;;17.50;90.00;;;;;;4595915;19;20010;-75
2023/12/04 05:28:40;;;;;;;21.63;19.05;;;17.30;89.80;;;;;;4595815;19;19999;-75
2023/12/04 05:30:15;;;;;;;22.00;17.77;;;17.10;89.40;;;;;;4593815;19;20038;-75
2023/12/04 05:31:50;;;;;;;39.08;29.02;;;16.90;89.30;;;;;;4595411;19;20017;-75
2023/12/04 05:33:24;;;;;;;37.83;28.23;;;16.70;89.20;;;;;;4595744;19;20003;-75
2023/12/04 05:34:59;;;;;;;61.70;44.53;;;16.60;88.80;;;;;;4595368;19;20043;-74
2023/12/04 05:36:34;;;;;;;46.10;35.88;;;16.50;88.80;;;;;;4595668;19;20421;-75
2023/12/04 05:38:08;;;;;;;40.05;31.00;;;16.40;88.50;;;;;;4595400;19;20003;-74
2023/12/04 05:39:43;;;;;;;69.30;52.75;;;16.30;88.40;;;;;;4594011;19;20010;-75
2023/12/04 05:41:17;;;;;;;35.42;28.73;;;16.20;88.10;;;;;;4593703;19;20011;-75
2023/12/04 05:42:51;;;;;;;21.63;18.77;;;16.20;88.00;;;;;;4595585;19;19994;-74
2023/12/04 05:44:26;;;;;;;20.02;17.70;;;16.10;88.00;;;;;;4595231;19;20074;-74
2023/12/04 05:46:00;;;;;;;19.45;17.20;;;16.00;87.70;;;;;;4595267;19;20002;-74
2023/12/04 05:47:34;;;;;;;20.75;18.35;;;16.00;87.60;;;;;;4593891;19;19999;-74
2023/12/04 05:49:10;;;;;;;21.02;18.05;;;15.90;87.40;;;;;;4594940;19;20014;-74
2023/12/04 05:50:45;;;;;;;21.70;19.38;;;15.90;87.60;;;;;;4593758;19;20340;-74
2023/12/04 05:52:19;;;;;;;21.52;19.10;;;15.80;88.10;;;;;;4594820;19;20025;-74
2023/12/04 05:53:55;;;;;;;22.48;19.98;;;15.80;87.40;;;;;;4595103;19;20011;-73
2023/12/04 05:55:29;;;;;;;29.60;23.55;;;15.80;87.30;;;;;;4595004;19;19995;-76
2023/12/04 05:57:03;;;;;;;23.92;21.40;;;15.70;87.20;;;;;;4594973;19;19998;-75
2023/12/04 05:58:38;;;;;;;39.10;28.35;;;15.70;87.10;;;;;;4594945;19;20006;-74
2023/12/04 06:00:12;;;;;;;38.85;28.73;;;15.60;87.00;;;;;;4594620;19;20006;-76
2023/12/04 06:01:46;;;;;;;41.58;30.08;;;15.60;86.80;;;;;;4594883;19;20005;-74
2023/12/04 06:03:23;;;;;;;41.30;30.15;;;15.60;86.90;;;;;;4595082;19;20007;-74
2023/12/04 06:04:58;;;;;;;33.72;26.23;;;15.50;86.70;;;;;;4594746;19;20377;-75
2023/12/04 06:06:32;;;;;;;26.40;22.55;;;15.50;86.60;;;;;;4595042;19;19998;-75
2023/12/04 06:08:07;;;;;;;27.30;21.95;;;15.50;86.60;;;;;;4594762;19;20440;-74
2023/12/04 06:09:41;;;;;;;24.67;21.17;;;15.50;86.60;;;;;;4594676;19;20065;-74
2023/12/04 06:11:15;;;;;;;27.42;21.02;;;15.40;86.40;;;;;;4593042;19;20014;-74
2023/12/04 06:12:50;;;;;;;40.65;33.10;;;15.40;86.30;;;;;;4594602;19;20018;-75
2023/12/04 06:14:25;;;;;;;25.52;21.90;;;15.40;86.20;;;;;;4594559;19;20003;-75
2023/12/04 06:15:58;;;;;;;25.60;20.35;;;15.40;86.20;;;;;;4594552;19;20003;-75
2023/12/04 06:17:35;;;;;;;25.90;22.38;;;15.40;86.20;;;;;;4594555;19;20362;-75
2023/12/04 06:19:09;;;;;;;21.88;19.55;;;15.30;86.20;;;;;;4593821;19;20006;-75
2023/12/04 06:20:43;;;;;;;21.45;18.45;;;15.30;86.20;;;;;;4593465;19;20025;-75
2023/12/04 06:22:21;;;;;;;20.02;17.83;;;15.30;86.20;;;;;;4594458;19;20003;-76
2023/12/04 06:23:55;;;;;;;22.27;19.40;;;15.30;86.20;;;;;;4594387;19;20449;-76
2023/12/04 06:25:30;;;;;;;32.40;28.77;;;15.20;86.00;;;;;;4594294;19;20007;-76
2023/12/04 06:27:08;;;;;;;34.00;28.48;;;15.30;85.90;;;;;;4594660;19;20013;-76
2023/12/04 06:28:44;;;;;;;47.08;34.33;;;15.30;85.90;;;;;;4594288;19;20019;-76
2023/12/04 06:30:18;;;;;;;56.55;37.17;;;15.40;85.70;;;;;;4593783;19;20003;-75
2023/12/04 06:31:54;;;;;;;69.45;45.42;;;15.40;85.60;;;;;;4594185;19;20013;-76
2023/12/04 06:33:28;;;;;;;56.67;38.40;;;15.50;86.20;;;;;;4594395;19;20295;-78
2023/12/04 06:35:03;;;;;;;55.80;35.90;;;15.60;85.50;;;;;;4594093;19;20310;-77
2023/12/04 06:36:40;;;;;;;36.20;26.45;;;15.80;85.40;;;;;;4594161;19;20021;-76
2023/12/04 06:38:19;;;;;;;30.45;24.02;;;15.90;84.90;;;;;;4594055;19;20092;-76
2023/12/04 06:39:54;;;;;;;30.55;25.27;;;16.00;84.60;;;;;;4591596;19;20309;-76
2023/12/04 06:41:29;;;;;;;32.28;25.98;;;16.20;84.50;;;;;;4592236;19;20023;-76
2023/12/04 06:43:03;;;;;;;27.52;22.67;;;16.30;84.20;;;;;;4594253;19;20006;-77
2023/12/04 06:44:38;;;;;;;25.25;22.17;;;16.30;83.90;;;;;;4593930;19;20456;-77
2023/12/04 06:46:13;;;;;;;24.77;21.48;;;16.40;83.50;;;;;;4594062;19;20006;-77
2023/12/04 06:47:48;;;;;;;22.63;18.58;;;16.50;83.50;;;;;;4592397;19;20003;-77
2023/12/04 06:49:23;;;;;;;21.70;18.10;;;16.50;83.20;;;;;;4593461;19;20054;-78
2023/12/04 06:50:58;;;;;;;20.65;17.40;;;16.60;83.10;;;;;;4592743;19;20314;-79
2023/12/04 06:52:32;;;;;;;22.90;17.17;;;16.70;82.80;;;;;;4592483;19;20337;-77
2023/12/04 06:54:08;;;;;;;22.05;18.45;;;16.70;82.50;;;;;;4593428;19;20310;-79
2023/12/04 06:55:43;;;;;;;22.08;19.05;;;16.80;82.40;;;;;;4593824;19;20051;-79
2023/12/04 06:57:19;;;;;;;24.27;20.55;;;16.70;82.10;;;;;;4592647;19;20006;-79
2023/12/04 06:58:55;;;;;;;27.27;21.98;;;16.80;81.90;;;;;;4592890;19;20341;-79
2023/12/04 07:00:31;;;;;;;24.08;20.65;;;16.70;81.80;;;;;;4591690;19;20081;-79
2023/12/04 07:02:05;;;;;;;23.67;20.92;;;16.70;81.80;;;;;;4593296;19;20321;-79
2023/12/04 07:03:39;;;;;;;22.92;20.30;;;16.70;81.70;;;;;;4591467;19;20006;-78
2023/12/04 07:05:14;;;;;;;22.98;19.45;;;16.60;81.60;;;;;;4593552;19;20013;-78
2023/12/04 07:06:49;;;;;;;22.52;19.38;;;16.60;81.60;;;;;;4593508;19;20009;-79
2023/12/04 07:08:23;;;;;;;24.50;21.17;;;16.50;81.50;;;;;;4592284;19;19998;-78
2023/12/04 07:09:59;;;;;;;39.10;27.52;;;16.50;81.50;;;;;;4593403;19;20017;-78
2023/12/04 07:11:34;;;;;;;29.90;24.02;;;16.40;81.40;;;;;;4591595;19;20022;-78
2023/12/04 07:13:08;;;;;;;27.30;22.58;;;16.40;81.40;;;;;;4593441;19;20078;-78
2023/12/04 07:14:44;;;;;;;25.58;21.55;;;16.30;81.30;;;;;;4593359;19;20323;-78
2023/12/04 07:16:18;;;;;;;25.73;20.95;;;16.30;81.20;;;;;;4592001;19;19999;-78
2023/12/04 07:17:52;;;;;;;36.80;27.15;;;16.20;81.30;;;;;;4592219;19;20082;-79
2023/12/04 07:19:27;;;;;;;41.45;31.27;;;16.20;81.30;;;;;;4592171;19;20007;-78
2023/12/04 07:21:01;;;;;;;33.47;25.60;;;16.10;81.30;;;;;;4592085;19;20377;-79
2023/12/04 07:22:37;;;;;;;33.33;25.58;;;16.10;81.40;;;;;;4593169;19;20359;-79
2023/12/04 07:24:13;;;;;;;31.15;24.08;;;16.10;81.40;;;;;;4593219;19;20006;-78
2023/12/04 07:25:47;;;;;;;36.35;24.60;;;16.10;81.50;;;;;;4593176;19;20023;-75
2023/12/04 07:27:21;;;;;;;39.17;29.02;;;16.10;81.40;;;;;;4592985;19;20002;-77
2023/12/04 07:28:56;;;;;;;47.00;34.17;;;16.10;81.30;;;;;;4592051;19;20006;-76
2023/12/04 07:30:31;;;;;;;41.10;33.05;;;16.10;81.20;;;;;;4591896;19;20073;-76
2023/12/04 07:32:05;;;;;;;36.38;29.55;;;16.10;81.20;;;;;;4591633;19;20006;-77
2023/12/04 07:33:44;;;;;;;35.72;27.13;;;16.10;81.20;;;;;;4592026;19;20415;-75
2023/12/04 07:35:19;;;;;;;36.25;27.35;;;16.10;81.20;;;;;;4592527;19;20062;-77
2023/12/04 07:36:53;;;;;;;33.65;24.95;;;16.00;81.20;;;;;;4592809;19;20021;-77
2023/12/04 07:38:28;;;;;;;29.98;24.15;;;16.00;81.10;;;;;;4591399;19;20082;-77
2023/12/04 07:40:05;;;;;;;29.92;22.98;;;16.00;81.10;;;;;;4591293;19;19999;-77
2023/12/04 07:41:39;;;;;;;29.40;22.60;;;16.00;81.10;;;;;;4592914;19;20309;-77
2023/12/04 07:43:14;;;;;;;22.40;18.52;;;15.90;81.00;;;;;;4591723;19;20320;-76
2023/12/04 07:44:48;;;;;;;22.90;19.52;;;15.90;81.00;;;;;;4592331;19;20003;-77
2023/12/04 07:46:22;;;;;;;25.85;21.00;;;15.90;81.00;;;;;;4591468;19;19998;-77
2023/12/04 07:47:59;;;;;;;25.20;20.73;;;15.80;81.00;;;;;;4592379;19;20010;-77
2023/12/04 07:49:34;;;;;;;29.10;22.67;;;15.80;81.10;;;;;;4591486;19;20009;-77
2023/12/04 07:51:09;;;;;;;29.85;23.67;;;15.80;81.30;;;;;;4591203;19;20033;-75
2023/12/04 07:52:45;;;;;;;32.55;24.52;;;15.70;81.10;;;;;;4591351;19;20092;-75
2023/12/04 07:54:19;;;;;;;34.47;24.27;;;15.70;81.20;;;;;;4591223;19;20011;-76
2023/12/04 07:55:52;;;;;;;32.80;24.92;;;15.70;81.10;;;;;;4592206;19;20020;-76
2023/12/04 07:57:28;;;;;;;32.75;25.17;;;15.70;81.10;;;;;;4592638;19;20010;-77
2023/12/04 07:59:02;;;;;;;59.42;43.90;;;15.70;81.20;;;;;;4592126;19;20011;-76
2023/12/04 08:00:37;;;;;;;51.15;38.22;;;15.60;81.20;;;;;;4591754;19;20025;-76
2023/12/04 08:02:12;;;;;;;32.92;26.50;;;15.60;81.20;;;;;;4592347;19;20015;-76
2023/12/04 08:03:49;;;;;;;31.98;24.10;;;15.70;81.20;;;;;;4592454;19;20017;-77
2023/12/04 08:05:23;;;;;;;33.63;24.90;;;15.70;81.10;;;;;;4592313;19;20014;-76
2023/12/04 08:06:58;;;;;;;31.80;25.30;;;15.70;80.90;;;;;;4592416;19;20002;-77
2023/12/04 08:08:32;;;;;;;32.50;26.25;;;15.80;80.90;;;;;;4592382;19;20346;-77
2023/12/04 08:10:06;;;;;;;30.73;24.10;;;15.80;80.90;;;;;;4592274;19;20477;-76
2023/12/04 08:11:42;;;;;;;25.73;21.92;;;15.80;80.80;;;;;;4592415;19;20033;-76
2023/12/04 08:13:16;;;;;;;25.55;22.25;;;15.80;80.90;;;;;;4592231;19;20089;-77
2023/12/04 08:14:52;;;;;;;27.13;21.58;;;15.70;80.80;;;;;;4590669;19;20002;-77
2023/12/04 08:16:28;;;;;;;28.50;23.17;;;15.80;81.00;;;;;;4592212;19;20041;-77
2023/12/04 08:18:03;;;;;;;24.42;20.70;;;15.70;80.70;;;;;;4590955;19;20065;-77
2023/12/04 08:19:37;;;;;;;26.83;23.10;;;15.70;80.80;;;;;;4591016;19;19998;-76
2023/12/04 08:21:13;;;;;;;27.65;23.42;;;15.70;80.70;;;;;;4590976;19;20092;-77